createdAt,value
2016-03-23T00:00:36.938Z,0
2016-03-23T00:01:36.971Z,0
2016-03-23T00:02:36.802Z,0
2016-03-23T00:03:36.992Z,0
2016-03-23T00:04:36.995Z,0
2016-03-23T00:05:36.997Z,0
2016-03-23T00:06:36.892Z,0
2016-03-23T00:07:37.034Z,0
2016-03-23T00:08:37.052Z,0
2016-03-23T00:09:37.086Z,0
2016-03-23T00:10:37.105Z,0
2016-03-23T00:11:37.108Z,0
2016-03-23T00:12:37.094Z,0
2016-03-23T00:13:37.331Z,0
2016-03-23T00:14:37.131Z,0
2016-03-23T00:15:37.149Z,0
2016-03-23T00:16:37.184Z,0
2016-03-23T00:17:37.186Z,0
2016-03-23T00:18:36.470Z,0
2016-03-23T00:19:36.472Z,0
2016-03-23T00:20:37.257Z,0
2016-03-23T00:21:37.228Z,0
2016-03-23T00:22:37.262Z,0
2016-03-23T00:23:37.281Z,0
2016-03-23T00:24:37.299Z,0
2016-03-23T00:25:37.302Z,0
2016-03-23T00:26:37.335Z,0
2016-03-23T00:27:37.323Z,0
2016-03-23T00:28:37.435Z,0
2016-03-23T00:29:37.374Z,0
2016-03-23T00:30:37.397Z,0
2016-03-23T00:31:37.399Z,0
2016-03-23T00:32:37.402Z,0
2016-03-23T00:33:37.435Z,0
2016-03-23T00:34:37.423Z,0
2016-03-23T00:35:37.456Z,0
2016-03-23T00:36:37.459Z,0
2016-03-23T00:37:37.477Z,0
2016-03-23T00:38:37.480Z,0
2016-03-23T00:39:37.545Z,0
2016-03-23T00:40:37.532Z,0
2016-03-23T00:41:37.613Z,0
2016-03-23T00:42:37.412Z,0
2016-03-23T00:43:37.587Z,0
2016-03-23T00:44:37.605Z,0
2016-03-23T00:45:37.623Z,0
2016-03-23T00:46:37.626Z,0
2016-03-23T00:47:37.628Z,0
2016-03-23T00:48:37.648Z,0
2016-03-23T00:49:37.666Z,0
2016-03-23T00:50:37.684Z,0
2016-03-23T00:51:37.687Z,0
2016-03-23T00:52:37.705Z,0
2016-03-23T00:53:37.708Z,0
2016-03-23T00:54:37.726Z,0
2016-03-23T00:55:37.730Z,0
2016-03-23T00:56:37.778Z,0
2016-03-23T00:57:37.765Z,0
2016-03-23T00:58:37.815Z,0
2016-03-23T00:59:37.802Z,0
2016-03-23T01:00:37.805Z,0
2016-03-23T01:01:37.855Z,0
2016-03-23T01:02:37.827Z,0
2016-03-23T01:03:37.876Z,0
2016-03-23T01:04:37.690Z,0
2016-03-23T01:05:37.881Z,0
2016-03-23T01:06:37.759Z,0
2016-03-23T01:07:37.792Z,0
2016-03-23T01:08:37.920Z,0
2016-03-23T01:09:37.953Z,0
2016-03-23T01:10:37.957Z,0
2016-03-23T01:11:38.006Z,0
2016-03-23T01:12:37.993Z,0
2016-03-23T01:13:38.012Z,0
2016-03-23T01:14:38.061Z,0
2016-03-23T01:15:38.017Z,0
2016-03-23T01:16:38.036Z,0
2016-03-23T01:17:38.070Z,0
2016-03-23T01:18:38.087Z,0
2016-03-23T01:19:38.089Z,0
2016-03-23T01:20:38.125Z,0
2016-03-23T01:21:38.111Z,0
2016-03-23T01:22:38.130Z,0
2016-03-23T01:23:38.164Z,0
2016-03-23T01:24:38.166Z,0
2016-03-23T01:25:38.169Z,0
2016-03-23T01:26:38.188Z,0
2016-03-23T01:27:38.206Z,0
2016-03-23T01:28:38.224Z,0
2016-03-23T01:29:38.241Z,0
2016-03-23T01:30:38.277Z,0
2016-03-23T01:31:38.247Z,0
2016-03-23T01:32:38.125Z,0
2016-03-23T01:33:38.300Z,0
2016-03-23T01:34:38.319Z,0
2016-03-23T01:35:38.321Z,0
2016-03-23T01:36:38.354Z,0
2016-03-23T01:37:38.342Z,0
2016-03-23T01:38:38.360Z,0
2016-03-23T01:39:38.379Z,0
2016-03-23T01:40:38.412Z,0
2016-03-23T01:41:38.431Z,0
2016-03-23T01:42:38.434Z,0
2016-03-23T01:43:38.436Z,0
2016-03-23T01:44:38.454Z,0
2016-03-23T01:45:38.457Z,0
2016-03-23T01:46:38.459Z,0
2016-03-23T01:47:38.478Z,0
2016-03-23T01:48:38.559Z,0
2016-03-23T01:49:38.514Z,0
2016-03-23T01:50:38.533Z,0
2016-03-23T01:51:38.583Z,0
2016-03-23T01:52:38.429Z,0
2016-03-23T01:53:38.588Z,0
2016-03-23T01:54:38.622Z,0
2016-03-23T01:55:38.641Z,0
2016-03-23T01:56:38.627Z,0
2016-03-23T01:57:38.646Z,0
2016-03-23T01:58:38.663Z,0
2016-03-23T01:59:38.683Z,0
2016-03-23T02:00:38.685Z,0
2016-03-23T02:01:38.687Z,0
2016-03-23T02:02:38.722Z,0
2016-03-23T02:03:38.740Z,0
2016-03-23T02:04:38.727Z,0
2016-03-23T02:05:38.746Z,0
2016-03-23T02:06:38.749Z,0
2016-03-23T02:07:38.782Z,0
2016-03-23T02:08:41.511Z,0
2016-03-23T02:09:38.823Z,0
2016-03-23T02:10:38.816Z,0
2016-03-23T02:11:46.891Z,0
2016-03-23T02:12:38.910Z,0
2016-03-23T02:13:38.959Z,0
2016-03-23T02:14:38.900Z,0
2016-03-23T02:15:38.902Z,0
2016-03-23T02:16:38.905Z,0
2016-03-23T02:17:38.939Z,0
2016-03-23T02:18:38.956Z,0
2016-03-23T02:19:38.959Z,0
2016-03-23T02:20:38.953Z,0
2016-03-23T02:21:38.987Z,0
2016-03-23T02:22:38.989Z,0
2016-03-23T02:23:38.992Z,0
2016-03-23T02:24:39.010Z,0
2016-03-23T02:25:39.029Z,0
2016-03-23T02:26:39.016Z,0
2016-03-23T02:27:39.080Z,0
2016-03-23T02:28:39.067Z,0
2016-03-23T02:29:39.102Z,0
2016-03-23T02:30:39.072Z,0
2016-03-23T02:31:39.108Z,0
2016-03-23T02:32:39.125Z,0
2016-03-23T02:33:38.988Z,0
2016-03-23T02:34:39.146Z,0
2016-03-23T02:35:39.165Z,0
2016-03-23T02:36:39.183Z,0
2016-03-23T02:37:39.201Z,0
2016-03-23T02:38:39.204Z,0
2016-03-23T02:39:39.237Z,0
2016-03-23T02:40:39.257Z,0
2016-03-23T02:41:39.243Z,0
2016-03-23T02:42:39.277Z,0
2016-03-23T02:43:39.280Z,0
2016-03-23T02:44:39.298Z,0
2016-03-23T02:45:39.317Z,0
2016-03-23T02:46:39.319Z,0
2016-03-23T02:47:39.323Z,0
2016-03-23T02:48:38.590Z,0
2016-03-23T02:49:39.359Z,0
2016-03-23T02:50:39.361Z,0
2016-03-23T02:51:39.395Z,0
2016-03-23T02:52:39.398Z,0
2016-03-23T02:53:39.431Z,0
2016-03-23T02:54:39.420Z,0
2016-03-23T02:55:39.437Z,0
2016-03-23T02:56:39.456Z,0
2016-03-23T02:57:39.490Z,0
2016-03-23T02:58:39.477Z,0
2016-03-23T02:59:39.511Z,0
2016-03-23T03:00:39.497Z,0
2016-03-23T03:01:39.578Z,0
2016-03-23T03:02:39.534Z,0
2016-03-23T03:03:39.552Z,0
2016-03-23T03:04:39.571Z,0
2016-03-23T03:05:39.574Z,0
2016-03-23T03:06:39.608Z,0
2016-03-23T03:07:39.610Z,0
2016-03-23T03:08:39.613Z,0
2016-03-23T03:09:39.647Z,0
2016-03-23T03:10:39.650Z,0
2016-03-23T03:11:39.668Z,0
2016-03-23T03:12:39.670Z,0
2016-03-23T03:13:39.704Z,0
2016-03-23T03:14:39.691Z,0
2016-03-23T03:15:39.725Z,0
2016-03-23T03:16:39.744Z,0
2016-03-23T03:17:39.778Z,0
2016-03-23T03:18:39.780Z,0
2016-03-23T03:19:39.767Z,0
2016-03-23T03:20:39.786Z,0
2016-03-23T03:21:39.820Z,0
2016-03-23T03:22:39.806Z,0
2016-03-23T03:23:39.840Z,0
2016-03-23T03:24:39.859Z,0
2016-03-23T03:25:39.877Z,0
2016-03-23T03:26:39.880Z,0
2016-03-23T03:27:39.914Z,0
2016-03-23T03:28:39.964Z,0
2016-03-23T03:29:39.919Z,0
2016-03-23T03:30:39.953Z,0
2016-03-23T03:31:39.941Z,0
2016-03-23T03:32:39.960Z,0
2016-03-23T03:33:39.993Z,0
2016-03-23T03:34:39.980Z,0
2016-03-23T03:35:39.998Z,0
2016-03-23T03:36:40.017Z,0
2016-03-23T03:37:40.020Z,0
2016-03-23T03:38:40.038Z,0
2016-03-23T03:39:40.088Z,0
2016-03-23T03:40:40.075Z,0
2016-03-23T03:41:40.108Z,0
2016-03-23T03:42:40.112Z,0
2016-03-23T03:43:40.145Z,0
2016-03-23T03:44:40.164Z,0
2016-03-23T03:45:40.150Z,0
2016-03-23T03:46:40.169Z,0
2016-03-23T03:47:40.172Z,0
2016-03-23T03:48:40.190Z,0
2016-03-23T03:49:40.208Z,0
2016-03-23T03:50:40.227Z,0
2016-03-23T03:51:40.229Z,0
2016-03-23T03:52:40.248Z,0
2016-03-23T03:53:40.251Z,0
2016-03-23T03:54:40.254Z,0
2016-03-23T03:55:40.271Z,0
2016-03-23T03:56:40.305Z,0
2016-03-23T03:57:40.293Z,0
2016-03-23T03:58:40.326Z,0
2016-03-23T03:59:40.235Z,0
2016-03-23T04:00:40.363Z,0
2016-03-23T04:01:40.381Z,0
2016-03-23T04:02:40.384Z,0
2016-03-23T04:03:40.418Z,0
2016-03-23T04:04:40.406Z,0
2016-03-23T04:05:40.439Z,0
2016-03-23T04:06:40.426Z,0
2016-03-23T04:07:40.459Z,0
2016-03-23T04:08:40.462Z,0
2016-03-23T04:09:40.481Z,0
2016-03-23T04:10:40.499Z,0
2016-03-23T04:11:40.518Z,0
2016-03-23T04:12:40.520Z,0
2016-03-23T04:13:39.805Z,0
2016-03-23T04:14:40.541Z,0
2016-03-23T04:15:40.591Z,0
2016-03-23T04:16:40.609Z,0
2016-03-23T04:17:40.611Z,0
2016-03-23T04:18:40.614Z,0
2016-03-23T04:19:40.648Z,0
2016-03-23T04:20:40.619Z,0
2016-03-23T04:21:40.669Z,0
2016-03-23T04:22:40.671Z,0
2016-03-23T04:23:40.674Z,0
2016-03-23T04:24:40.693Z,0
2016-03-23T04:25:40.711Z,0
2016-03-23T04:26:40.729Z,0
2016-03-23T04:27:40.748Z,0
2016-03-23T04:28:40.750Z,0
2016-03-23T04:29:40.768Z,0
2016-03-23T04:30:40.787Z,0
2016-03-23T04:31:40.774Z,0
2016-03-23T04:32:40.808Z,0
2016-03-23T04:33:40.842Z,0
2016-03-23T04:34:40.814Z,0
2016-03-23T04:35:40.863Z,0
2016-03-23T04:36:40.866Z,0
2016-03-23T04:37:40.884Z,0
2016-03-23T04:38:40.903Z,0
2016-03-23T04:39:40.905Z,0
2016-03-23T04:40:40.939Z,0
2016-03-23T04:41:40.926Z,0
2016-03-23T04:42:40.929Z,0
2016-03-23T04:43:40.947Z,0
2016-03-23T04:44:40.981Z,0
2016-03-23T04:45:40.984Z,0
2016-03-23T04:46:41.002Z,0
2016-03-23T04:47:41.036Z,0
2016-03-23T04:48:41.039Z,0
2016-03-23T04:49:41.042Z,0
2016-03-23T04:50:41.060Z,0
2016-03-23T04:51:41.093Z,0
2016-03-23T04:52:41.113Z,0
2016-03-23T04:53:41.115Z,0
2016-03-23T04:54:41.133Z,0
2016-03-23T04:55:41.136Z,0
2016-03-23T04:56:41.201Z,0
2016-03-23T04:57:41.157Z,4
2016-03-23T04:58:41.253Z,4
2016-03-23T04:59:41.194Z,0
2016-03-23T05:00:41.259Z,0
2016-03-23T05:01:41.230Z,4
2016-03-23T05:02:41.248Z,4
2016-03-23T05:03:41.235Z,4
2016-03-23T05:04:41.269Z,4
2016-03-23T05:05:41.273Z,4
2016-03-23T05:06:41.134Z,8
2016-03-23T05:07:41.293Z,4
2016-03-23T05:08:41.295Z,8
2016-03-23T05:09:41.345Z,12
2016-03-23T05:10:41.348Z,12
2016-03-23T05:11:41.381Z,16
2016-03-23T05:12:41.400Z,16
2016-03-23T05:13:41.386Z,20
2016-03-23T05:14:41.422Z,24
2016-03-23T05:15:41.436Z,24
2016-03-23T05:16:41.429Z,24
2016-03-23T05:17:41.437Z,28
2016-03-23T05:18:41.445Z,28
2016-03-23T05:19:41.438Z,36
2016-03-23T05:20:41.432Z,40
2016-03-23T05:21:41.446Z,40
2016-03-23T05:22:41.445Z,44
2016-03-23T05:23:41.460Z,40
2016-03-23T05:24:41.475Z,40
2016-03-23T05:25:41.491Z,44
2016-03-23T05:26:41.523Z,48
2016-03-23T05:27:41.493Z,44
2016-03-23T05:28:41.525Z,44
2016-03-23T05:29:41.542Z,44
2016-03-23T05:30:41.559Z,44
2016-03-23T05:31:41.577Z,52
2016-03-23T05:32:41.580Z,56
2016-03-23T05:36:41.620Z,76
2016-03-23T05:37:41.483Z,80
2016-03-23T05:38:41.641Z,96
2016-03-23T05:39:41.675Z,100
2016-03-23T05:40:41.663Z,116
2016-03-23T05:41:41.696Z,124
2016-03-23T05:42:41.683Z,120
2016-03-23T05:43:41.701Z,116
2016-03-23T05:44:42.032Z,124
2016-03-23T05:45:41.754Z,128
2016-03-23T05:46:41.772Z,136
2016-03-23T05:47:41.791Z,168
2016-03-23T05:48:41.777Z,184
2016-03-23T05:49:41.796Z,204
2016-03-23T05:50:41.798Z,224
2016-03-23T05:51:41.832Z,268
2016-03-23T05:52:41.835Z,336
2016-03-23T05:53:41.854Z,340
2016-03-23T05:54:41.872Z,312
2016-03-23T05:55:41.876Z,292
2016-03-23T05:56:41.893Z,284
2016-03-23T05:57:41.896Z,284
2016-03-23T05:58:41.930Z,332
2016-03-23T05:59:42.276Z,380
2016-03-23T06:00:41.951Z,400
2016-03-23T06:01:41.969Z,380
2016-03-23T06:02:42.003Z,360
2016-03-23T06:03:42.006Z,364
2016-03-23T06:04:42.008Z,316
2016-03-23T06:05:42.042Z,252
2016-03-23T06:06:42.070Z,240
2016-03-23T06:07:42.129Z,256
2016-03-23T06:08:42.070Z,292
2016-03-23T06:09:42.073Z,284
2016-03-23T06:10:42.091Z,256
2016-03-23T06:11:42.093Z,240
2016-03-23T06:12:42.128Z,236
2016-03-23T06:13:42.131Z,300
2016-03-23T06:14:42.258Z,372
2016-03-23T06:15:42.167Z,380
2016-03-23T06:16:42.184Z,376
2016-03-23T06:17:42.047Z,488
2016-03-23T06:18:42.222Z,548
2016-03-23T06:19:42.240Z,636
2016-03-23T06:20:42.259Z,668
2016-03-23T06:21:42.245Z,700
2016-03-23T06:22:42.264Z,728
2016-03-23T06:23:42.282Z,728
2016-03-23T06:24:42.285Z,700
2016-03-23T06:25:42.319Z,688
2016-03-23T06:26:42.337Z,696
2016-03-23T06:27:42.339Z,656
2016-03-23T06:28:42.342Z,668
2016-03-23T06:29:42.673Z,628
2016-03-23T06:30:42.379Z,664
2016-03-23T06:31:42.397Z,680
2016-03-23T06:32:42.432Z,684
2016-03-23T06:33:42.419Z,712
2016-03-23T06:34:42.421Z,788
2016-03-23T06:35:42.455Z,816
2016-03-23T06:36:42.442Z,856
2016-03-23T06:37:42.476Z,896
2016-03-23T06:38:42.479Z,928
2016-03-23T06:39:42.496Z,908
2016-03-23T06:40:42.515Z,884
2016-03-23T06:41:42.533Z,932
2016-03-23T06:42:42.551Z,952
2016-03-23T06:43:42.554Z,956
2016-03-23T06:44:42.620Z,968
2016-03-23T06:45:42.592Z,924
2016-03-23T06:46:42.625Z,964
2016-03-23T06:47:42.612Z,992
2016-03-23T06:48:42.645Z,1040
2016-03-23T06:49:42.648Z,1096
2016-03-23T06:50:42.683Z,1208
2016-03-23T06:51:42.700Z,1204
2016-03-23T06:52:42.688Z,1184
2016-03-23T06:53:42.722Z,1208
2016-03-23T06:54:42.725Z,1204
2016-03-23T06:55:42.744Z,1232
2016-03-23T06:56:41.997Z,1220
2016-03-23T06:57:42.764Z,1216
2016-03-23T06:58:42.752Z,1300
2016-03-23T06:59:42.880Z,1432
2016-03-23T07:00:42.803Z,1504
2016-03-23T07:01:42.791Z,1632
2016-03-23T07:02:42.841Z,1664
2016-03-23T07:03:42.858Z,1700
2016-03-23T07:04:42.861Z,1744
2016-03-23T07:05:42.895Z,1768
2016-03-23T07:06:42.741Z,1748
2016-03-23T07:07:42.915Z,1648
2016-03-23T07:08:42.904Z,1716
2016-03-23T07:09:42.921Z,1840
2016-03-23T07:10:42.924Z,1840
2016-03-23T07:11:42.943Z,1844
2016-03-23T07:12:42.976Z,1824
2016-03-23T07:13:42.979Z,1952
2016-03-23T07:14:43.137Z,2124
2016-03-23T07:15:43.000Z,2092
2016-03-23T07:16:43.018Z,2180
2016-03-23T07:17:43.020Z,2144
2016-03-23T07:18:43.055Z,2028
2016-03-23T07:19:43.073Z,1996
2016-03-23T07:20:43.075Z,1964
2016-03-23T07:21:43.109Z,1880
2016-03-23T07:22:43.128Z,1764
2016-03-23T07:23:43.131Z,1764
2016-03-23T07:24:43.150Z,1812
2016-03-23T07:25:43.183Z,1852
2016-03-23T07:26:43.170Z,1880
2016-03-23T07:27:43.172Z,1876
2016-03-23T07:28:43.191Z,1756
2016-03-23T07:29:43.272Z,1608
2016-03-23T07:30:43.228Z,1532
2016-03-23T07:31:43.246Z,1440
2016-03-23T07:32:43.249Z,1488
2016-03-23T07:33:43.236Z,1464
2016-03-23T07:34:43.285Z,1272
2016-03-23T07:35:43.304Z,1112
2016-03-23T07:36:43.307Z,1056
2016-03-23T07:37:43.309Z,996
2016-03-23T07:38:43.327Z,968
2016-03-23T07:39:43.345Z,948
2016-03-23T07:40:43.348Z,952
2016-03-23T07:41:43.367Z,980
2016-03-23T07:42:43.384Z,1080
2016-03-23T07:43:43.404Z,1060
2016-03-23T07:44:43.437Z,1012
2016-03-23T07:45:43.440Z,1040
2016-03-23T07:46:43.427Z,1184
2016-03-23T07:47:43.445Z,1336
2016-03-23T07:48:43.479Z,1516
2016-03-23T07:49:43.545Z,1736
2016-03-23T07:50:43.500Z,1924
2016-03-23T07:51:43.519Z,2144
2016-03-23T07:52:43.552Z,2460
2016-03-23T07:53:43.555Z,2548
2016-03-23T07:54:43.558Z,2440
2016-03-23T07:55:43.638Z,2436
2016-03-23T07:56:43.595Z,2560
2016-03-23T07:57:43.597Z,2608
2016-03-23T07:58:43.600Z,2656
2016-03-23T07:59:43.633Z,2804
2016-03-23T08:00:43.668Z,3092
2016-03-23T08:01:43.671Z,3424
2016-03-23T08:02:43.705Z,3660
2016-03-23T08:03:43.723Z,3744
2016-03-23T08:04:43.710Z,3576
2016-03-23T08:05:43.713Z,3292
2016-03-23T08:06:43.715Z,3240
2016-03-23T08:07:43.749Z,3208
2016-03-23T08:08:43.736Z,3164
2016-03-23T08:09:43.754Z,3096
2016-03-23T08:10:43.788Z,3012
2016-03-23T08:11:43.806Z,2780
2016-03-23T08:12:43.809Z,2816
2016-03-23T08:13:43.843Z,2680
2016-03-23T08:14:43.862Z,2732
2016-03-23T08:15:43.848Z,3080
2016-03-23T08:16:43.867Z,2916
2016-03-23T08:17:43.885Z,2572
2016-03-23T08:18:43.887Z,2260
2016-03-23T08:19:43.766Z,2016
2016-03-23T08:20:43.909Z,1920
2016-03-23T08:21:43.928Z,1880
2016-03-23T08:22:43.789Z,1836
2016-03-23T08:23:43.980Z,1828
2016-03-23T08:24:43.983Z,1880
2016-03-23T08:25:43.985Z,1816
2016-03-23T08:26:44.019Z,1804
2016-03-23T08:27:44.022Z,1976
2016-03-23T08:28:44.055Z,2380
2016-03-23T08:29:44.043Z,2772
2016-03-23T08:30:44.077Z,3016
2016-03-23T08:31:44.095Z,3256
2016-03-23T08:32:44.097Z,3436
2016-03-23T08:33:44.116Z,3384
2016-03-23T08:34:44.119Z,3644
2016-03-23T08:35:44.137Z,3412
2016-03-23T08:36:44.155Z,3096
2016-03-23T08:37:44.188Z,2724
2016-03-23T08:38:44.177Z,2312
2016-03-23T08:39:44.210Z,1940
2016-03-23T08:40:44.229Z,1772
2016-03-23T08:41:44.216Z,1760
2016-03-23T08:42:44.234Z,1836
2016-03-23T08:43:44.267Z,1968
2016-03-23T08:44:44.271Z,1960
2016-03-23T08:45:44.289Z,1868
2016-03-23T08:46:44.292Z,1724
2016-03-23T08:47:44.325Z,1588
2016-03-23T08:48:44.328Z,1500
2016-03-23T08:49:44.221Z,1516
2016-03-23T08:50:44.364Z,1520
2016-03-23T08:51:44.368Z,1568
2016-03-23T08:52:44.386Z,1676
2016-03-23T08:53:44.419Z,1776
2016-03-23T08:54:44.406Z,1936
2016-03-23T08:55:44.441Z,2248
2016-03-23T08:56:44.444Z,2524
2016-03-23T08:57:44.461Z,2832
2016-03-23T08:58:44.495Z,3288
2016-03-23T08:59:44.498Z,3472
2016-03-23T09:00:44.500Z,3528
2016-03-23T09:01:44.536Z,3792
2016-03-23T09:02:44.538Z,4348
2016-03-23T09:03:44.541Z,4884
2016-03-23T09:04:44.574Z,5440
2016-03-23T09:05:44.561Z,5912
2016-03-23T09:06:44.596Z,6248
2016-03-23T09:07:44.598Z,6328
2016-03-23T09:08:44.601Z,6380
2016-03-23T09:09:44.618Z,6344
2016-03-23T09:10:44.638Z,6300
2016-03-23T09:11:44.655Z,6052
2016-03-23T09:12:44.674Z,6148
2016-03-23T09:13:44.692Z,6296
2016-03-23T09:14:44.695Z,6456
2016-03-23T09:15:44.713Z,6284
2016-03-23T09:16:44.732Z,5892
2016-03-23T09:17:44.781Z,5476
2016-03-23T09:18:44.753Z,5112
2016-03-23T09:19:44.770Z,4856
2016-03-23T09:20:44.836Z,4532
2016-03-23T09:21:44.807Z,3912
2016-03-23T09:22:44.825Z,3392
2016-03-23T09:23:44.845Z,2904
2016-03-23T09:24:44.862Z,2588
2016-03-23T09:25:44.880Z,2444
2016-03-23T09:26:44.883Z,2396
2016-03-23T09:27:44.745Z,2496
2016-03-23T09:28:44.951Z,2744
2016-03-23T09:29:44.922Z,3076
2016-03-23T09:30:44.941Z,3396
2016-03-23T09:31:44.944Z,3728
2016-03-23T09:32:44.977Z,4088
2016-03-23T09:33:44.981Z,4216
2016-03-23T09:34:44.983Z,4132
2016-03-23T09:35:45.032Z,3940
2016-03-23T09:36:45.019Z,3732
2016-03-23T09:37:45.054Z,3532
2016-03-23T09:38:45.072Z,3428
2016-03-23T09:39:45.090Z,3304
2016-03-23T09:40:45.093Z,3284
2016-03-23T09:41:45.096Z,3356
2016-03-23T09:42:45.113Z,3376
2016-03-23T09:43:45.149Z,3452
2016-03-23T09:44:45.151Z,3576
2016-03-23T09:45:45.138Z,3880
2016-03-23T09:46:45.204Z,4304
2016-03-23T09:47:45.190Z,4664
2016-03-23T09:48:45.209Z,4888
2016-03-23T09:49:45.242Z,4988
2016-03-23T09:50:45.244Z,4932
2016-03-23T09:51:45.247Z,4904
2016-03-23T09:52:45.281Z,5060
2016-03-23T09:53:45.268Z,5252
2016-03-23T09:54:45.287Z,5532
2016-03-23T09:55:45.306Z,5580
2016-03-23T09:56:45.323Z,5480
2016-03-23T09:57:45.310Z,5608
2016-03-23T09:58:45.345Z,5640
2016-03-23T09:59:45.378Z,5568
2016-03-23T10:00:45.380Z,5480
2016-03-23T10:01:45.399Z,5488
2016-03-23T10:02:45.402Z,5516
2016-03-23T10:03:45.420Z,5392
2016-03-23T10:04:45.439Z,5384
2016-03-23T10:05:45.472Z,5436
2016-03-23T10:06:45.475Z,5756
2016-03-23T10:07:45.477Z,5948
2016-03-23T10:08:45.513Z,6232
2016-03-23T10:09:45.515Z,6372
2016-03-23T10:10:45.533Z,6640
2016-03-23T10:11:45.535Z,7076
2016-03-23T10:12:45.554Z,7404
2016-03-23T10:13:45.604Z,7580
2016-03-23T10:14:45.590Z,7648
2016-03-23T10:15:45.594Z,7768
2016-03-23T10:16:45.643Z,7688
2016-03-23T10:17:45.629Z,7532
2016-03-23T10:18:45.649Z,7684
2016-03-23T10:19:45.667Z,7892
2016-03-23T10:20:45.701Z,8080
2016-03-23T10:21:45.687Z,8264
2016-03-23T10:22:45.721Z,8892
2016-03-23T10:23:45.723Z,9708
2016-03-23T10:24:45.743Z,9844
2016-03-23T10:25:45.761Z,10480
2016-03-23T10:26:45.794Z,10236
2016-03-23T10:27:45.797Z,10592
2016-03-23T10:28:45.800Z,8904
2016-03-23T10:29:45.834Z,7940
2016-03-23T10:30:45.836Z,5820
2016-03-23T10:31:45.855Z,4356
2016-03-23T10:32:45.873Z,4056
2016-03-23T10:33:45.875Z,3960
2016-03-23T10:34:45.895Z,3780
2016-03-23T10:35:45.897Z,3720
2016-03-23T10:36:45.930Z,3772
2016-03-23T10:37:45.933Z,4020
2016-03-23T10:38:45.968Z,4020
2016-03-23T10:39:45.971Z,4112
2016-03-23T10:40:45.988Z,4176
2016-03-23T10:41:46.007Z,4120
2016-03-23T10:42:46.041Z,4224
2016-03-23T10:43:46.043Z,4124
2016-03-23T10:44:46.078Z,3904
2016-03-23T10:45:46.112Z,3720
2016-03-23T10:46:46.083Z,3508
2016-03-23T10:47:46.101Z,3176
2016-03-23T10:48:46.104Z,3192
2016-03-23T10:49:45.981Z,3428
2016-03-23T10:50:46.125Z,3720
2016-03-23T10:51:46.159Z,3892
2016-03-23T10:52:46.176Z,4108
2016-03-23T10:53:46.179Z,4240
2016-03-23T10:54:46.229Z,3976
2016-03-23T10:55:46.217Z,3672
2016-03-23T10:56:46.234Z,3308
2016-03-23T10:57:46.253Z,2844
2016-03-23T10:58:46.287Z,2300
2016-03-23T10:59:46.305Z,1828
2016-03-23T11:00:46.297Z,1692
2016-03-23T11:01:46.331Z,1868
2016-03-23T11:02:46.334Z,2172
2016-03-23T11:03:46.352Z,2532
2016-03-23T11:04:46.371Z,2820
2016-03-23T11:05:46.357Z,3212
2016-03-23T11:06:46.391Z,3676
2016-03-23T11:07:46.410Z,4176
2016-03-23T11:08:46.428Z,4656
2016-03-23T11:09:46.430Z,5148
2016-03-23T11:10:46.465Z,5588
2016-03-23T11:11:46.468Z,6048
2016-03-23T11:12:46.485Z,6372
2016-03-23T11:13:46.504Z,6480
2016-03-23T11:14:46.506Z,6500
2016-03-23T11:15:46.526Z,6560
2016-03-23T11:16:46.528Z,6764
2016-03-23T11:17:46.545Z,7000
2016-03-23T11:18:46.409Z,7188
2016-03-23T11:19:46.598Z,7552
2016-03-23T11:20:46.601Z,8072
2016-03-23T11:21:46.604Z,8424
2016-03-23T11:22:46.637Z,8540
2016-03-23T11:23:46.656Z,8656
2016-03-23T11:24:46.658Z,8912
2016-03-23T11:25:46.693Z,9176
2016-03-23T11:26:46.695Z,9232
2016-03-23T11:27:46.714Z,8580
2016-03-23T11:28:46.717Z,7692
2016-03-23T11:29:46.734Z,6328
2016-03-23T11:30:46.753Z,5508
2016-03-23T11:31:46.756Z,4920
2016-03-23T11:32:46.775Z,4568
2016-03-23T11:33:46.839Z,4780
2016-03-23T11:34:46.810Z,5296
2016-03-23T11:35:46.658Z,5640
2016-03-23T11:36:46.832Z,5808
2016-03-23T11:37:46.850Z,5956
2016-03-23T11:38:46.852Z,6180
2016-03-23T11:39:46.933Z,6448
2016-03-23T11:40:46.888Z,6840
2016-03-23T11:41:46.908Z,7092
2016-03-23T11:42:46.926Z,7364
2016-03-23T11:43:46.928Z,7596
2016-03-23T11:44:46.962Z,7812
2016-03-23T11:45:46.965Z,7996
2016-03-23T11:46:47.015Z,8124
2016-03-23T11:47:47.001Z,8252
2016-03-23T11:48:47.004Z,8420
2016-03-23T11:49:47.054Z,8612
2016-03-23T11:50:47.072Z,8836
2016-03-23T11:51:47.060Z,9016
2016-03-23T11:52:47.078Z,9088
2016-03-23T11:53:47.065Z,9140
2016-03-23T11:54:47.130Z,9568
2016-03-23T11:55:47.117Z,9388
2016-03-23T11:56:47.167Z,9780
2016-03-23T11:57:47.184Z,9840
2016-03-23T11:58:47.187Z,9860
2016-03-23T11:59:47.190Z,9172
2016-03-23T12:00:47.427Z,8812
2016-03-23T12:01:47.228Z,8656
2016-03-23T12:02:47.230Z,8548
2016-03-23T12:03:47.247Z,8272
2016-03-23T12:04:47.282Z,7812
2016-03-23T12:05:47.285Z,7412
2016-03-23T12:06:47.303Z,7116
2016-03-23T12:07:47.305Z,7128
2016-03-23T12:08:47.324Z,7368
2016-03-23T12:09:47.326Z,7348
2016-03-23T12:10:47.360Z,7448
2016-03-23T12:11:47.379Z,7672
2016-03-23T12:12:47.382Z,7420
2016-03-23T12:13:47.415Z,7244
2016-03-23T12:14:47.418Z,7000
2016-03-23T12:15:47.437Z,6712
2016-03-23T12:16:47.471Z,6336
2016-03-23T12:17:47.457Z,5668
2016-03-23T12:18:47.476Z,4584
2016-03-23T12:19:47.509Z,3772
2016-03-23T12:20:47.529Z,3180
2016-03-23T12:21:47.546Z,2732
2016-03-23T12:22:47.534Z,2596
2016-03-23T12:23:47.583Z,2520
2016-03-23T12:24:47.601Z,2476
2016-03-23T12:25:47.589Z,2516
2016-03-23T12:26:47.591Z,2692
2016-03-23T12:27:47.625Z,2856
2016-03-23T12:28:47.643Z,3124
2016-03-23T12:29:47.645Z,3428
2016-03-23T12:30:47.633Z,3732
2016-03-23T12:31:47.683Z,4060
2016-03-23T12:32:47.716Z,4384
2016-03-23T12:33:47.719Z,4712
2016-03-23T12:34:47.753Z,4976
2016-03-23T12:35:47.756Z,5196
2016-03-23T12:36:47.758Z,5420
2016-03-23T12:37:47.824Z,5616
2016-03-23T12:38:47.795Z,5776
2016-03-23T12:39:47.813Z,5980
2016-03-23T12:40:47.847Z,6192
2016-03-23T12:41:47.896Z,6424
2016-03-23T12:42:47.899Z,6560
2016-03-23T12:43:47.902Z,6724
2016-03-23T12:44:47.904Z,6876
2016-03-23T12:45:48.079Z,7044
2016-03-23T12:46:48.004Z,7188
2016-03-23T12:47:48.006Z,7320
2016-03-23T12:48:48.040Z,7428
2016-03-23T12:49:48.074Z,7508
2016-03-23T12:50:48.045Z,7544
2016-03-23T12:51:48.064Z,7516
2016-03-23T12:52:48.052Z,7464
2016-03-23T12:53:48.054Z,7416
2016-03-23T12:54:48.042Z,7452
2016-03-23T12:55:48.075Z,7548
2016-03-23T12:56:48.078Z,7672
2016-03-23T12:57:48.095Z,7776
2016-03-23T12:58:48.130Z,7772
2016-03-23T12:59:48.117Z,7792
2016-03-23T13:00:48.308Z,7788
2016-03-23T13:01:48.169Z,7764
2016-03-23T13:02:48.172Z,7752
2016-03-23T13:03:48.191Z,7768
2016-03-23T13:04:48.193Z,7840
2016-03-23T13:05:48.211Z,7904
2016-03-23T13:06:48.245Z,9224
2016-03-23T13:07:48.263Z,7964
2016-03-23T13:08:48.267Z,8216
2016-03-23T13:09:48.269Z,7812
2016-03-23T13:10:48.318Z,7980
2016-03-23T13:11:48.337Z,7380
2016-03-23T13:12:48.355Z,6592
2016-03-23T13:13:48.358Z,6280
2016-03-23T13:14:48.391Z,6100
2016-03-23T13:15:48.238Z,5932
2016-03-23T13:16:48.397Z,5684
2016-03-23T13:17:48.415Z,5400
2016-03-23T13:18:48.435Z,5092
2016-03-23T13:19:48.437Z,4784
2016-03-23T13:20:48.470Z,4480
2016-03-23T13:21:48.490Z,4224
2016-03-23T13:22:48.523Z,3968
2016-03-23T13:23:48.540Z,3808
2016-03-23T13:24:48.559Z,3632
2016-03-23T13:25:48.578Z,3492
2016-03-23T13:26:48.580Z,3256
2016-03-23T13:27:48.568Z,2956
2016-03-23T13:28:48.601Z,2724
2016-03-23T13:29:48.604Z,2560
2016-03-23T13:30:48.622Z,2428
2016-03-23T13:31:48.641Z,2308
2016-03-23T13:32:48.658Z,2240
2016-03-23T13:33:48.661Z,2248
2016-03-23T13:34:48.695Z,2220
2016-03-23T13:35:48.714Z,2232
2016-03-23T13:36:48.733Z,2316
2016-03-23T13:37:48.750Z,2488
2016-03-23T13:38:48.753Z,2780
2016-03-23T13:39:48.787Z,3028
2016-03-23T13:40:48.806Z,3308
2016-03-23T13:41:48.808Z,3592
2016-03-23T13:42:48.810Z,3748
2016-03-23T13:43:48.861Z,3768
2016-03-23T13:44:48.847Z,3760
2016-03-23T13:45:48.897Z,3776
2016-03-23T13:46:48.900Z,3736
2016-03-23T13:47:48.887Z,3980
2016-03-23T13:48:48.920Z,4436
2016-03-23T13:49:48.986Z,5020
2016-03-23T13:50:48.988Z,5568
2016-03-23T13:51:48.976Z,5760
2016-03-23T13:52:48.993Z,5968
2016-03-23T13:53:48.996Z,6288
2016-03-23T13:54:48.999Z,6396
2016-03-23T13:55:49.034Z,6488
2016-03-23T13:56:49.020Z,6576